sensor_id;sensor_type;location;lat;lon;timestamp;P1;durP1;ratioP1;P2;durP2;ratioP2
12437;SDS011;6283;51.330;12.374;2023-02-28T00:00:24;4.63;;;2.07;;
12437;SDS011;6283;51.330;12.374;2023-02-28T00:02:50;2.67;;;1.80;;
12437;SDS011;6283;51.330;12.374;2023-02-28T00:05:17;4.97;;;1.80;;
12437;SDS011;6283;51.330;12.374;2023-02-28T00:07:45;2.00;;;1.53;;
12437;SDS011;6283;51.330;12.374;2023-02-28T00:10:14;2.20;;;1.97;;
12437;SDS011;6283;51.330;12.374;2023-02-28T00:12:46;2.50;;;1.93;;
12437;SDS011;6283;51.330;12.374;2023-02-28T00:15:12;2.17;;;1.87;;
12437;SDS011;6283;51.330;12.374;2023-02-28T00:17:38;2.33;;;1.77;;
12437;SDS011;6283;51.330;12.374;2023-02-28T00:20:04;3.30;;;1.97;;
12437;SDS011;6283;51.330;12.374;2023-02-28T00:22:35;3.10;;;2.03;;
12437;SDS011;6283;51.330;12.374;2023-02-28T00:25:02;2.83;;;1.70;;
12437;SDS011;6283;51.330;12.374;2023-02-28T00:27:28;3.20;;;1.97;;
12437;SDS011;6283;51.330;12.374;2023-02-28T00:29:54;2.27;;;1.87;;
12437;SDS011;6283;51.330;12.374;2023-02-28T00:32:20;3.07;;;2.07;;
12437;SDS011;6283;51.330;12.374;2023-02-28T00:34:46;3.53;;;2.10;;
12437;SDS011;6283;51.330;12.374;2023-02-28T00:37:11;3.53;;;1.97;;
12437;SDS011;6283;51.330;12.374;2023-02-28T00:39:38;3.43;;;2.27;;
12437;SDS011;6283;51.330;12.374;2023-02-28T00:42:04;2.70;;;1.93;;
12437;SDS011;6283;51.330;12.374;2023-02-28T00:44:31;2.50;;;1.83;;
12437;SDS011;6283;51.330;12.374;2023-02-28T00:46:57;3.20;;;2.20;;
12437;SDS011;6283;51.330;12.374;2023-02-28T00:49:24;3.27;;;1.93;;
12437;SDS011;6283;51.330;12.374;2023-02-28T00:51:50;3.73;;;2.57;;
12437;SDS011;6283;51.330;12.374;2023-02-28T00:54:16;2.37;;;1.90;;
12437;SDS011;6283;51.330;12.374;2023-02-28T00:56:42;3.43;;;2.37;;
12437;SDS011;6283;51.330;12.374;2023-02-28T00:59:08;4.27;;;2.13;;
12437;SDS011;6283;51.330;12.374;2023-02-28T01:01:33;3.83;;;2.00;;
12437;SDS011;6283;51.330;12.374;2023-02-28T01:03:59;3.80;;;2.13;;
12437;SDS011;6283;51.330;12.374;2023-02-28T01:06:25;2.53;;;1.90;;
12437;SDS011;6283;51.330;12.374;2023-02-28T01:08:51;3.60;;;2.33;;
12437;SDS011;6283;51.330;12.374;2023-02-28T01:11:17;3.10;;;2.10;;
12437;SDS011;6283;51.330;12.374;2023-02-28T01:13:43;2.27;;;1.87;;
12437;SDS011;6283;51.330;12.374;2023-02-28T01:16:10;3.43;;;2.30;;
12437;SDS011;6283;51.330;12.374;2023-02-28T01:18:37;3.17;;;2.47;;
12437;SDS011;6283;51.330;12.374;2023-02-28T01:21:03;3.03;;;2.20;;
12437;SDS011;6283;51.330;12.374;2023-02-28T01:23:30;4.20;;;2.10;;
12437;SDS011;6283;51.330;12.374;2023-02-28T01:25:55;1.83;;;1.70;;
12437;SDS011;6283;51.330;12.374;2023-02-28T01:28:21;3.03;;;2.20;;
12437;SDS011;6283;51.330;12.374;2023-02-28T01:30:47;3.43;;;2.27;;
12437;SDS011;6283;51.330;12.374;2023-02-28T01:33:13;2.87;;;2.20;;
12437;SDS011;6283;51.330;12.374;2023-02-28T01:35:39;4.13;;;2.30;;
12437;SDS011;6283;51.330;12.374;2023-02-28T01:38:04;3.73;;;2.20;;
12437;SDS011;6283;51.330;12.374;2023-02-28T01:40:30;3.43;;;2.27;;
12437;SDS011;6283;51.330;12.374;2023-02-28T01:42:56;3.47;;;2.37;;
12437;SDS011;6283;51.330;12.374;2023-02-28T01:45:22;3.40;;;2.17;;
12437;SDS011;6283;51.330;12.374;2023-02-28T01:48:00;2.87;;;2.13;;
12437;SDS011;6283;51.330;12.374;2023-02-28T01:50:30;4.47;;;1.90;;
12437;SDS011;6283;51.330;12.374;2023-02-28T01:53:00;2.80;;;2.17;;
12437;SDS011;6283;51.330;12.374;2023-02-28T01:55:29;2.53;;;2.13;;
12437;SDS011;6283;51.330;12.374;2023-02-28T01:57:58;3.17;;;2.67;;
12437;SDS011;6283;51.330;12.374;2023-02-28T02:00:27;5.10;;;2.73;;
12437;SDS011;6283;51.330;12.374;2023-02-28T02:02:58;3.23;;;2.17;;
12437;SDS011;6283;51.330;12.374;2023-02-28T02:05:29;3.20;;;2.30;;
12437;SDS011;6283;51.330;12.374;2023-02-28T02:07:56;3.37;;;2.40;;
12437;SDS011;6283;51.330;12.374;2023-02-28T02:10:34;7.07;;;2.40;;
12437;SDS011;6283;51.330;12.374;2023-02-28T02:40:25;4.30;;;2.07;;
12437;SDS011;6283;51.330;12.374;2023-02-28T02:45:50;4.77;;;2.80;;
12437;SDS011;6283;51.330;12.374;2023-02-28T02:48:21;3.73;;;2.23;;
12437;SDS011;6283;51.330;12.374;2023-02-28T02:50:53;2.50;;;2.10;;
12437;SDS011;6283;51.330;12.374;2023-02-28T02:53:23;3.30;;;2.23;;
12437;SDS011;6283;51.330;12.374;2023-02-28T02:55:53;2.77;;;2.03;;
12437;SDS011;6283;51.330;12.374;2023-02-28T02:58:21;4.93;;;2.50;;
12437;SDS011;6283;51.330;12.374;2023-02-28T03:00:52;2.60;;;2.40;;
12437;SDS011;6283;51.330;12.374;2023-02-28T03:03:21;4.03;;;2.53;;
12437;SDS011;6283;51.330;12.374;2023-02-28T03:05:54;2.53;;;2.13;;
12437;SDS011;6283;51.330;12.374;2023-02-28T03:08:24;2.53;;;2.10;;
12437;SDS011;6283;51.330;12.374;2023-02-28T03:10:59;3.70;;;2.00;;
12437;SDS011;6283;51.330;12.374;2023-02-28T03:21:29;3.37;;;2.00;;
12437;SDS011;6283;51.330;12.374;2023-02-28T03:26:54;4.00;;;2.40;;
12437;SDS011;6283;51.330;12.374;2023-02-28T03:34:51;2.37;;;2.17;;
12437;SDS011;6283;51.330;12.374;2023-02-28T03:37:25;2.77;;;1.80;;
12437;SDS011;6283;51.330;12.374;2023-02-28T03:40:01;5.90;;;2.40;;
12437;SDS011;6283;51.330;12.374;2023-02-28T03:42:42;3.73;;;2.30;;
12437;SDS011;6283;51.330;12.374;2023-02-28T03:45:22;4.43;;;2.20;;
12437;SDS011;6283;51.330;12.374;2023-02-28T03:47:55;2.97;;;2.30;;
12437;SDS011;6283;51.330;12.374;2023-02-28T03:53:11;4.57;;;2.30;;
12437;SDS011;6283;51.330;12.374;2023-02-28T03:55:48;3.63;;;2.50;;
12437;SDS011;6283;51.330;12.374;2023-02-28T04:03:37;3.73;;;2.43;;
12437;SDS011;6283;51.330;12.374;2023-02-28T04:06:04;4.50;;;2.67;;
12437;SDS011;6283;51.330;12.374;2023-02-28T04:08:32;4.43;;;2.93;;
12437;SDS011;6283;51.330;12.374;2023-02-28T04:11:01;4.27;;;3.00;;
12437;SDS011;6283;51.330;12.374;2023-02-28T04:13:47;4.33;;;2.67;;
12437;SDS011;6283;51.330;12.374;2023-02-28T04:16:13;4.07;;;2.50;;
12437;SDS011;6283;51.330;12.374;2023-02-28T04:18:39;3.47;;;2.37;;
12437;SDS011;6283;51.330;12.374;2023-02-28T04:21:05;4.60;;;2.97;;
12437;SDS011;6283;51.330;12.374;2023-02-28T04:23:31;3.20;;;2.63;;
12437;SDS011;6283;51.330;12.374;2023-02-28T04:25:57;3.70;;;2.50;;
12437;SDS011;6283;51.330;12.374;2023-02-28T04:28:23;3.67;;;2.33;;
12437;SDS011;6283;51.330;12.374;2023-02-28T04:30:56;3.97;;;2.77;;
12437;SDS011;6283;51.330;12.374;2023-02-28T04:33:26;3.97;;;2.50;;
12437;SDS011;6283;51.330;12.374;2023-02-28T04:36:02;6.03;;;2.97;;
12437;SDS011;6283;51.330;12.374;2023-02-28T04:38:34;4.13;;;2.67;;
12437;SDS011;6283;51.330;12.374;2023-02-28T04:41:01;3.83;;;2.57;;
12437;SDS011;6283;51.330;12.374;2023-02-28T04:43:27;6.67;;;3.47;;
12437;SDS011;6283;51.330;12.374;2023-02-28T04:45:54;3.60;;;2.80;;
12437;SDS011;6283;51.330;12.374;2023-02-28T04:48:23;4.67;;;2.87;;
12437;SDS011;6283;51.330;12.374;2023-02-28T04:50:50;3.70;;;2.37;;
12437;SDS011;6283;51.330;12.374;2023-02-28T04:53:16;5.77;;;2.80;;
12437;SDS011;6283;51.330;12.374;2023-02-28T04:55:42;3.37;;;2.50;;
12437;SDS011;6283;51.330;12.374;2023-02-28T04:58:08;5.13;;;2.73;;
12437;SDS011;6283;51.330;12.374;2023-02-28T05:00:34;3.10;;;2.47;;
12437;SDS011;6283;51.330;12.374;2023-02-28T05:02:59;5.67;;;3.20;;
12437;SDS011;6283;51.330;12.374;2023-02-28T05:05:25;4.53;;;2.70;;
12437;SDS011;6283;51.330;12.374;2023-02-28T05:07:51;3.40;;;2.53;;
12437;SDS011;6283;51.330;12.374;2023-02-28T05:10:18;4.13;;;2.40;;
12437;SDS011;6283;51.330;12.374;2023-02-28T05:12:44;3.10;;;2.60;;
12437;SDS011;6283;51.330;12.374;2023-02-28T05:15:13;5.53;;;2.77;;
12437;SDS011;6283;51.330;12.374;2023-02-28T05:17:39;6.63;;;3.07;;
12437;SDS011;6283;51.330;12.374;2023-02-28T05:20:06;5.97;;;2.93;;
12437;SDS011;6283;51.330;12.374;2023-02-28T05:22:35;3.73;;;2.60;;
12437;SDS011;6283;51.330;12.374;2023-02-28T05:25:02;4.20;;;2.40;;
12437;SDS011;6283;51.330;12.374;2023-02-28T05:27:28;4.53;;;2.97;;
12437;SDS011;6283;51.330;12.374;2023-02-28T05:29:53;4.97;;;2.87;;
12437;SDS011;6283;51.330;12.374;2023-02-28T05:32:19;4.67;;;2.93;;
12437;SDS011;6283;51.330;12.374;2023-02-28T05:34:45;7.07;;;2.87;;
12437;SDS011;6283;51.330;12.374;2023-02-28T05:37:12;3.53;;;2.50;;
12437;SDS011;6283;51.330;12.374;2023-02-28T05:39:38;3.93;;;2.67;;
12437;SDS011;6283;51.330;12.374;2023-02-28T05:42:04;4.63;;;2.93;;
12437;SDS011;6283;51.330;12.374;2023-02-28T05:44:31;3.90;;;2.60;;
12437;SDS011;6283;51.330;12.374;2023-02-28T05:46:57;4.70;;;2.67;;
12437;SDS011;6283;51.330;12.374;2023-02-28T05:49:22;3.93;;;2.73;;
12437;SDS011;6283;51.330;12.374;2023-02-28T05:51:48;6.23;;;3.13;;
12437;SDS011;6283;51.330;12.374;2023-02-28T05:54:13;6.03;;;3.27;;
12437;SDS011;6283;51.330;12.374;2023-02-28T05:56:39;3.23;;;2.30;;
12437;SDS011;6283;51.330;12.374;2023-02-28T05:59:06;4.13;;;2.80;;
12437;SDS011;6283;51.330;12.374;2023-02-28T06:01:39;4.50;;;3.07;;
12437;SDS011;6283;51.330;12.374;2023-02-28T06:04:07;7.70;;;2.73;;
12437;SDS011;6283;51.330;12.374;2023-02-28T06:06:34;6.83;;;2.90;;
12437;SDS011;6283;51.330;12.374;2023-02-28T06:09:00;4.87;;;2.93;;
12437;SDS011;6283;51.330;12.374;2023-02-28T06:11:27;9.57;;;3.23;;
12437;SDS011;6283;51.330;12.374;2023-02-28T06:13:53;4.33;;;2.90;;
12437;SDS011;6283;51.330;12.374;2023-02-28T06:16:24;5.13;;;3.00;;
12437;SDS011;6283;51.330;12.374;2023-02-28T06:18:50;4.20;;;3.00;;
12437;SDS011;6283;51.330;12.374;2023-02-28T06:21:17;5.77;;;3.00;;
12437;SDS011;6283;51.330;12.374;2023-02-28T06:23:43;6.03;;;3.03;;
12437;SDS011;6283;51.330;12.374;2023-02-28T06:26:09;6.73;;;2.90;;
12437;SDS011;6283;51.330;12.374;2023-02-28T06:28:34;5.77;;;2.80;;
12437;SDS011;6283;51.330;12.374;2023-02-28T06:31:06;5.13;;;2.80;;
12437;SDS011;6283;51.330;12.374;2023-02-28T06:33:32;5.17;;;3.20;;
12437;SDS011;6283;51.330;12.374;2023-02-28T06:35:58;3.53;;;3.13;;
12437;SDS011;6283;51.330;12.374;2023-02-28T06:38:24;6.23;;;3.30;;
12437;SDS011;6283;51.330;12.374;2023-02-28T06:40:53;4.60;;;3.07;;
12437;SDS011;6283;51.330;12.374;2023-02-28T06:43:19;5.23;;;3.23;;
12437;SDS011;6283;51.330;12.374;2023-02-28T06:45:45;8.37;;;3.37;;
12437;SDS011;6283;51.330;12.374;2023-02-28T06:48:11;5.93;;;3.17;;
12437;SDS011;6283;51.330;12.374;2023-02-28T06:50:36;8.67;;;3.33;;
12437;SDS011;6283;51.330;12.374;2023-02-28T06:53:02;5.80;;;3.43;;
12437;SDS011;6283;51.330;12.374;2023-02-28T06:55:28;9.67;;;3.43;;
12437;SDS011;6283;51.330;12.374;2023-02-28T06:57:53;10.40;;;3.53;;
12437;SDS011;6283;51.330;12.374;2023-02-28T07:00:20;7.70;;;3.13;;
12437;SDS011;6283;51.330;12.374;2023-02-28T07:02:46;5.60;;;3.33;;
12437;SDS011;6283;51.330;12.374;2023-02-28T07:05:12;6.20;;;3.10;;
12437;SDS011;6283;51.330;12.374;2023-02-28T07:07:38;9.20;;;4.17;;
12437;SDS011;6283;51.330;12.374;2023-02-28T07:10:08;9.03;;;3.93;;
12437;SDS011;6283;51.330;12.374;2023-02-28T07:12:39;7.47;;;4.13;;
12437;SDS011;6283;51.330;12.374;2023-02-28T07:15:05;6.63;;;3.53;;
12437;SDS011;6283;51.330;12.374;2023-02-28T07:17:31;4.27;;;3.40;;
12437;SDS011;6283;51.330;12.374;2023-02-28T07:19:57;7.73;;;4.10;;
12437;SDS011;6283;51.330;12.374;2023-02-28T07:22:22;7.20;;;3.30;;
12437;SDS011;6283;51.330;12.374;2023-02-28T07:24:49;3.97;;;2.90;;
12437;SDS011;6283;51.330;12.374;2023-02-28T07:27:15;8.83;;;3.47;;
12437;SDS011;6283;51.330;12.374;2023-02-28T07:29:50;11.37;;;5.70;;
12437;SDS011;6283;51.330;12.374;2023-02-28T07:32:16;8.20;;;3.80;;
12437;SDS011;6283;51.330;12.374;2023-02-28T07:34:43;7.83;;;3.73;;
12437;SDS011;6283;51.330;12.374;2023-02-28T07:37:09;10.57;;;3.87;;
12437;SDS011;6283;51.330;12.374;2023-02-28T07:39:34;5.73;;;3.17;;
12437;SDS011;6283;51.330;12.374;2023-02-28T07:42:03;5.37;;;3.40;;
12437;SDS011;6283;51.330;12.374;2023-02-28T07:44:29;6.33;;;3.40;;
12437;SDS011;6283;51.330;12.374;2023-02-28T07:46:55;6.70;;;4.23;;
12437;SDS011;6283;51.330;12.374;2023-02-28T07:49:21;5.73;;;3.67;;
12437;SDS011;6283;51.330;12.374;2023-02-28T07:51:46;6.10;;;3.47;;
12437;SDS011;6283;51.330;12.374;2023-02-28T07:54:12;8.53;;;4.33;;
12437;SDS011;6283;51.330;12.374;2023-02-28T07:56:37;9.57;;;4.30;;
12437;SDS011;6283;51.330;12.374;2023-02-28T07:59:03;6.63;;;3.30;;
12437;SDS011;6283;51.330;12.374;2023-02-28T08:01:30;3.77;;;3.43;;
12437;SDS011;6283;51.330;12.374;2023-02-28T08:03:55;7.50;;;3.83;;
12437;SDS011;6283;51.330;12.374;2023-02-28T08:06:23;9.03;;;3.83;;
12437;SDS011;6283;51.330;12.374;2023-02-28T08:08:50;6.57;;;3.93;;
12437;SDS011;6283;51.330;12.374;2023-02-28T08:11:16;5.30;;;3.80;;
12437;SDS011;6283;51.330;12.374;2023-02-28T08:13:42;5.83;;;4.00;;
12437;SDS011;6283;51.330;12.374;2023-02-28T08:16:09;6.83;;;3.83;;
12437;SDS011;6283;51.330;12.374;2023-02-28T08:18:35;4.57;;;3.17;;
12437;SDS011;6283;51.330;12.374;2023-02-28T08:21:10;4.73;;;3.50;;
12437;SDS011;6283;51.330;12.374;2023-02-28T08:23:36;6.07;;;3.33;;
12437;SDS011;6283;51.330;12.374;2023-02-28T08:26:02;10.33;;;3.63;;
12437;SDS011;6283;51.330;12.374;2023-02-28T08:28:28;5.13;;;4.03;;
12437;SDS011;6283;51.330;12.374;2023-02-28T08:30:54;7.73;;;3.90;;
12437;SDS011;6283;51.330;12.374;2023-02-28T08:33:20;7.37;;;3.20;;
12437;SDS011;6283;51.330;12.374;2023-02-28T08:35:47;8.90;;;3.50;;
12437;SDS011;6283;51.330;12.374;2023-02-28T08:38:13;5.67;;;3.30;;
12437;SDS011;6283;51.330;12.374;2023-02-28T08:40:39;4.83;;;3.27;;
12437;SDS011;6283;51.330;12.374;2023-02-28T08:43:05;4.00;;;3.10;;
12437;SDS011;6283;51.330;12.374;2023-02-28T08:45:31;8.20;;;3.37;;
12437;SDS011;6283;51.330;12.374;2023-02-28T08:47:56;6.47;;;2.93;;
12437;SDS011;6283;51.330;12.374;2023-02-28T08:50:22;3.40;;;2.60;;
12437;SDS011;6283;51.330;12.374;2023-02-28T08:52:47;4.60;;;2.90;;
12437;SDS011;6283;51.330;12.374;2023-02-28T08:55:13;5.87;;;2.60;;
12437;SDS011;6283;51.330;12.374;2023-02-28T08:57:39;3.63;;;3.00;;
12437;SDS011;6283;51.330;12.374;2023-02-28T09:00:05;4.57;;;3.00;;
12437;SDS011;6283;51.330;12.374;2023-02-28T09:02:31;3.23;;;2.40;;
12437;SDS011;6283;51.330;12.374;2023-02-28T09:04:57;7.03;;;2.77;;
12437;SDS011;6283;51.330;12.374;2023-02-28T09:07:23;3.77;;;3.03;;
12437;SDS011;6283;51.330;12.374;2023-02-28T09:09:49;7.70;;;2.77;;
12437;SDS011;6283;51.330;12.374;2023-02-28T09:12:23;4.67;;;2.67;;
12437;SDS011;6283;51.330;12.374;2023-02-28T09:14:49;8.87;;;3.40;;
12437;SDS011;6283;51.330;12.374;2023-02-28T09:17:15;5.63;;;2.90;;
12437;SDS011;6283;51.330;12.374;2023-02-28T09:19:41;4.67;;;3.37;;
12437;SDS011;6283;51.330;12.374;2023-02-28T09:22:07;3.83;;;2.90;;
12437;SDS011;6283;51.330;12.374;2023-02-28T09:24:34;5.03;;;3.30;;
12437;SDS011;6283;51.330;12.374;2023-02-28T09:27:01;5.20;;;3.03;;
12437;SDS011;6283;51.330;12.374;2023-02-28T09:29:26;6.90;;;3.37;;
12437;SDS011;6283;51.330;12.374;2023-02-28T09:31:52;4.37;;;2.83;;
12437;SDS011;6283;51.330;12.374;2023-02-28T09:34:18;13.53;;;4.30;;
12437;SDS011;6283;51.330;12.374;2023-02-28T09:36:43;5.77;;;3.30;;
12437;SDS011;6283;51.330;12.374;2023-02-28T09:39:09;7.07;;;3.30;;
12437;SDS011;6283;51.330;12.374;2023-02-28T09:41:39;6.70;;;3.17;;
12437;SDS011;6283;51.330;12.374;2023-02-28T09:44:15;4.60;;;3.10;;
12437;SDS011;6283;51.330;12.374;2023-02-28T09:47:08;9.20;;;3.77;;
12437;SDS011;6283;51.330;12.374;2023-02-28T09:49:54;5.27;;;3.20;;
12437;SDS011;6283;51.330;12.374;2023-02-28T09:52:25;5.40;;;3.20;;
12437;SDS011;6283;51.330;12.374;2023-02-28T09:54:55;12.67;;;3.33;;
12437;SDS011;6283;51.330;12.374;2023-02-28T09:57:39;13.67;;;3.90;;
12437;SDS011;6283;51.330;12.374;2023-02-28T10:08:35;6.87;;;3.10;;
12437;SDS011;6283;51.330;12.374;2023-02-28T10:11:10;4.70;;;3.13;;
12437;SDS011;6283;51.330;12.374;2023-02-28T10:13:46;6.30;;;3.80;;
12437;SDS011;6283;51.330;12.374;2023-02-28T10:16:16;7.53;;;3.47;;
12437;SDS011;6283;51.330;12.374;2023-02-28T10:18:59;14.27;;;4.37;;
12437;SDS011;6283;51.330;12.374;2023-02-28T10:27:44;3.83;;;2.83;;
12437;SDS011;6283;51.330;12.374;2023-02-28T10:29:55;4.40;;;3.10;;
12437;SDS011;6283;51.330;12.374;2023-02-28T10:32:40;21.33;;;5.33;;
12437;SDS011;6283;51.330;12.374;2023-02-28T10:35:16;5.90;;;3.13;;
12437;SDS011;6283;51.330;12.374;2023-02-28T10:37:47;8.30;;;4.17;;
12437;SDS011;6283;51.330;12.374;2023-02-28T10:42:56;7.83;;;3.20;;
12437;SDS011;6283;51.330;12.374;2023-02-28T10:45:34;4.63;;;3.27;;
12437;SDS011;6283;51.330;12.374;2023-02-28T10:55:39;6.30;;;3.63;;
12437;SDS011;6283;51.330;12.374;2023-02-28T10:58:18;6.53;;;4.10;;
12437;SDS011;6283;51.330;12.374;2023-02-28T11:00:46;9.07;;;3.70;;
12437;SDS011;6283;51.330;12.374;2023-02-28T11:03:28;5.03;;;3.40;;
12437;SDS011;6283;51.330;12.374;2023-02-28T11:05:56;4.73;;;3.90;;
12437;SDS011;6283;51.330;12.374;2023-02-28T11:08:22;4.83;;;3.30;;
12437;SDS011;6283;51.330;12.374;2023-02-28T11:10:58;4.60;;;3.77;;
12437;SDS011;6283;51.330;12.374;2023-02-28T11:13:32;5.83;;;3.53;;
12437;SDS011;6283;51.330;12.374;2023-02-28T11:16:00;7.57;;;3.73;;
12437;SDS011;6283;51.330;12.374;2023-02-28T11:18:29;7.83;;;3.93;;
12437;SDS011;6283;51.330;12.374;2023-02-28T11:21:00;3.50;;;3.20;;
12437;SDS011;6283;51.330;12.374;2023-02-28T11:23:29;5.90;;;3.50;;
12437;SDS011;6283;51.330;12.374;2023-02-28T11:25:59;5.37;;;3.07;;
12437;SDS011;6283;51.330;12.374;2023-02-28T11:28:29;4.93;;;3.47;;
12437;SDS011;6283;51.330;12.374;2023-02-28T11:36:24;5.47;;;3.53;;
12437;SDS011;6283;51.330;12.374;2023-02-28T11:38:53;5.00;;;4.10;;
12437;SDS011;6283;51.330;12.374;2023-02-28T11:47:32;14.57;;;5.20;;
12437;SDS011;6283;51.330;12.374;2023-02-28T12:06:17;6.23;;;4.23;;
12437;SDS011;6283;51.330;12.374;2023-02-28T12:08:56;5.70;;;4.53;;
12437;SDS011;6283;51.330;12.374;2023-02-28T12:19:29;7.87;;;4.77;;
12437;SDS011;6283;51.330;12.374;2023-02-28T12:25:59;5.87;;;4.60;;
12437;SDS011;6283;51.330;12.374;2023-02-28T12:28:53;6.73;;;4.80;;
12437;SDS011;6283;51.330;12.374;2023-02-28T12:31:26;5.83;;;4.80;;
12437;SDS011;6283;51.330;12.374;2023-02-28T12:33:57;14.37;;;5.37;;
12437;SDS011;6283;51.330;12.374;2023-02-28T12:36:28;10.00;;;5.03;;
12437;SDS011;6283;51.330;12.374;2023-02-28T12:39:01;8.63;;;5.13;;
12437;SDS011;6283;51.330;12.374;2023-02-28T12:44:32;7.10;;;4.83;;
12437;SDS011;6283;51.330;12.374;2023-02-28T12:47:03;7.07;;;4.90;;
12437;SDS011;6283;51.330;12.374;2023-02-28T12:49:36;8.57;;;5.63;;
12437;SDS011;6283;51.330;12.374;2023-02-28T12:52:06;10.63;;;6.00;;
12437;SDS011;6283;51.330;12.374;2023-02-28T12:59:48;11.20;;;5.40;;
12437;SDS011;6283;51.330;12.374;2023-02-28T13:05:15;9.37;;;5.73;;
12437;SDS011;6283;51.330;12.374;2023-02-28T13:10:47;9.73;;;5.60;;
12437;SDS011;6283;51.330;12.374;2023-02-28T13:13:21;10.40;;;5.73;;
12437;SDS011;6283;51.330;12.374;2023-02-28T13:18:42;7.73;;;5.50;;
12437;SDS011;6283;51.330;12.374;2023-02-28T13:21:21;8.27;;;5.57;;
12437;SDS011;6283;51.330;12.374;2023-02-28T13:24:07;24.53;;;7.90;;
12437;SDS011;6283;51.330;12.374;2023-02-28T13:32:27;8.50;;;6.43;;
12437;SDS011;6283;51.330;12.374;2023-02-28T13:40:06;6.45;;;5.53;;
12437;SDS011;6283;51.330;12.374;2023-02-28T13:42:36;7.97;;;5.80;;
12437;SDS011;6283;51.330;12.374;2023-02-28T13:47:41;8.70;;;5.15;;
12437;SDS011;6283;51.330;12.374;2023-02-28T14:06:31;16.83;;;7.30;;
12437;SDS011;6283;51.330;12.374;2023-02-28T14:11:42;11.37;;;6.33;;
12437;SDS011;6283;51.330;12.374;2023-02-28T14:14:09;9.73;;;6.00;;
12437;SDS011;6283;51.330;12.374;2023-02-28T14:16:59;6.47;;;5.40;;
12437;SDS011;6283;51.330;12.374;2023-02-28T14:19:27;20.77;;;7.78;;
12437;SDS011;6283;51.330;12.374;2023-02-28T14:27:57;7.65;;;5.47;;
12437;SDS011;6283;51.330;12.374;2023-02-28T14:38:33;11.15;;;5.95;;
12437;SDS011;6283;51.330;12.374;2023-02-28T14:41:04;6.85;;;5.22;;
12437;SDS011;6283;51.330;12.374;2023-02-28T14:43:52;6.75;;;5.47;;
12437;SDS011;6283;51.330;12.374;2023-02-28T14:46:20;6.45;;;5.15;;
12437;SDS011;6283;51.330;12.374;2023-02-28T14:48:48;6.87;;;5.63;;
12437;SDS011;6283;51.330;12.374;2023-02-28T14:51:19;10.27;;;5.82;;
12437;SDS011;6283;51.330;12.374;2023-02-28T14:53:48;9.30;;;6.00;;
12437;SDS011;6283;51.330;12.374;2023-02-28T14:56:20;7.70;;;5.45;;
12437;SDS011;6283;51.330;12.374;2023-02-28T14:58:53;7.35;;;5.82;;
12437;SDS011;6283;51.330;12.374;2023-02-28T15:01:20;10.40;;;6.68;;
12437;SDS011;6283;51.330;12.374;2023-02-28T15:03:47;7.13;;;5.45;;
12437;SDS011;6283;51.330;12.374;2023-02-28T15:06:21;41.20;;;9.98;;
12437;SDS011;6283;51.330;12.374;2023-02-28T15:08:48;11.50;;;6.63;;
12437;SDS011;6283;51.330;12.374;2023-02-28T15:11:31;8.73;;;6.80;;
12437;SDS011;6283;51.330;12.374;2023-02-28T15:13:57;27.10;;;9.02;;
12437;SDS011;6283;51.330;12.374;2023-02-28T15:16:25;10.27;;;6.68;;
12437;SDS011;6283;51.330;12.374;2023-02-28T15:19:26;6.88;;;5.35;;
12437;SDS011;6283;51.330;12.374;2023-02-28T15:21:55;8.27;;;5.80;;
12437;SDS011;6283;51.330;12.374;2023-02-28T15:24:35;7.63;;;6.10;;
12437;SDS011;6283;51.330;12.374;2023-02-28T15:27:14;8.57;;;5.50;;
12437;SDS011;6283;51.330;12.374;2023-02-28T15:29:47;7.83;;;6.20;;
12437;SDS011;6283;51.330;12.374;2023-02-28T15:32:26;7.47;;;5.90;;
12437;SDS011;6283;51.330;12.374;2023-02-28T15:35:16;18.53;;;7.20;;
12437;SDS011;6283;51.330;12.374;2023-02-28T15:40:38;9.03;;;6.37;;
12437;SDS011;6283;51.330;12.374;2023-02-28T15:43:17;7.90;;;5.90;;
12437;SDS011;6283;51.330;12.374;2023-02-28T15:45:54;6.37;;;5.47;;
12437;SDS011;6283;51.330;12.374;2023-02-28T15:50:57;8.70;;;6.67;;
12437;SDS011;6283;51.330;12.374;2023-02-28T15:56:27;14.73;;;6.97;;
12437;SDS011;6283;51.330;12.374;2023-02-28T15:58:54;7.43;;;6.03;;
12437;SDS011;6283;51.330;12.374;2023-02-28T16:01:28;12.77;;;7.60;;
12437;SDS011;6283;51.330;12.374;2023-02-28T16:04:00;8.23;;;6.00;;
12437;SDS011;6283;51.330;12.374;2023-02-28T16:06:45;12.70;;;6.60;;
12437;SDS011;6283;51.330;12.374;2023-02-28T16:09:12;10.87;;;7.27;;
12437;SDS011;6283;51.330;12.374;2023-02-28T16:11:47;16.80;;;7.43;;
12437;SDS011;6283;51.330;12.374;2023-02-28T16:14:16;7.40;;;5.77;;
12437;SDS011;6283;51.330;12.374;2023-02-28T16:16:45;9.63;;;6.47;;
12437;SDS011;6283;51.330;12.374;2023-02-28T16:19:12;12.60;;;7.40;;
12437;SDS011;6283;51.330;12.374;2023-02-28T16:21:38;7.47;;;6.17;;
12437;SDS011;6283;51.330;12.374;2023-02-28T16:24:04;9.40;;;6.50;;
12437;SDS011;6283;51.330;12.374;2023-02-28T16:26:30;10.53;;;7.43;;
12437;SDS011;6283;51.330;12.374;2023-02-28T16:28:59;24.03;;;11.63;;
12437;SDS011;6283;51.330;12.374;2023-02-28T16:31:26;10.53;;;7.53;;
12437;SDS011;6283;51.330;12.374;2023-02-28T16:33:52;8.53;;;6.00;;
12437;SDS011;6283;51.330;12.374;2023-02-28T16:36:20;10.90;;;7.20;;
12437;SDS011;6283;51.330;12.374;2023-02-28T16:38:50;9.83;;;6.20;;
12437;SDS011;6283;51.330;12.374;2023-02-28T16:41:17;10.57;;;6.43;;
12437;SDS011;6283;51.330;12.374;2023-02-28T16:43:47;10.47;;;7.03;;
12437;SDS011;6283;51.330;12.374;2023-02-28T16:46:14;14.50;;;6.70;;
12437;SDS011;6283;51.330;12.374;2023-02-28T16:48:40;8.43;;;6.73;;
12437;SDS011;6283;51.330;12.374;2023-02-28T16:51:08;9.67;;;6.30;;
12437;SDS011;6283;51.330;12.374;2023-02-28T16:53:37;7.10;;;6.03;;
12437;SDS011;6283;51.330;12.374;2023-02-28T16:56:02;14.80;;;7.27;;
12437;SDS011;6283;51.330;12.374;2023-02-28T16:58:29;7.77;;;6.60;;
12437;SDS011;6283;51.330;12.374;2023-02-28T17:00:55;9.63;;;6.70;;
12437;SDS011;6283;51.330;12.374;2023-02-28T17:03:22;9.03;;;6.53;;
12437;SDS011;6283;51.330;12.374;2023-02-28T17:05:49;11.97;;;6.87;;
12437;SDS011;6283;51.330;12.374;2023-02-28T17:08:15;12.40;;;6.73;;
12437;SDS011;6283;51.330;12.374;2023-02-28T17:10:41;8.57;;;6.20;;
12437;SDS011;6283;51.330;12.374;2023-02-28T17:13:07;15.00;;;7.33;;
12437;SDS011;6283;51.330;12.374;2023-02-28T17:15:33;11.20;;;6.67;;
12437;SDS011;6283;51.330;12.374;2023-02-28T17:17:59;11.50;;;7.10;;
12437;SDS011;6283;51.330;12.374;2023-02-28T17:20:24;11.67;;;7.40;;
12437;SDS011;6283;51.330;12.374;2023-02-28T17:22:51;11.40;;;7.00;;
12437;SDS011;6283;51.330;12.374;2023-02-28T17:25:17;13.33;;;6.97;;
12437;SDS011;6283;51.330;12.374;2023-02-28T17:27:43;15.17;;;7.53;;
12437;SDS011;6283;51.330;12.374;2023-02-28T17:30:13;13.60;;;7.03;;
12437;SDS011;6283;51.330;12.374;2023-02-28T17:32:44;18.73;;;7.70;;
12437;SDS011;6283;51.330;12.374;2023-02-28T17:35:10;14.77;;;7.13;;
12437;SDS011;6283;51.330;12.374;2023-02-28T17:37:35;11.43;;;7.30;;
12437;SDS011;6283;51.330;12.374;2023-02-28T17:40:01;13.57;;;9.20;;
12437;SDS011;6283;51.330;12.374;2023-02-28T17:42:27;14.50;;;8.00;;
12437;SDS011;6283;51.330;12.374;2023-02-28T17:44:53;18.87;;;8.40;;
12437;SDS011;6283;51.330;12.374;2023-02-28T17:47:19;16.87;;;8.23;;
12437;SDS011;6283;51.330;12.374;2023-02-28T17:49:44;14.17;;;8.17;;
12437;SDS011;6283;51.330;12.374;2023-02-28T17:52:10;20.83;;;9.90;;
12437;SDS011;6283;51.330;12.374;2023-02-28T17:54:36;18.53;;;9.47;;
12437;SDS011;6283;51.330;12.374;2023-02-28T17:57:01;13.80;;;8.03;;
12437;SDS011;6283;51.330;12.374;2023-02-28T17:59:27;10.87;;;7.40;;
12437;SDS011;6283;51.330;12.374;2023-02-28T18:02:01;16.23;;;8.17;;
12437;SDS011;6283;51.330;12.374;2023-02-28T18:04:28;18.10;;;9.30;;
12437;SDS011;6283;51.330;12.374;2023-02-28T18:06:54;16.53;;;9.13;;